Terminal Aerodrome Forecast
Issued by NWS

Home | Current Version | Previous Version | Text Only | Print | Product List | Glossary On
Versions: 1 2 3 4 5 6 7 8 9 10 11 12 13 14 15 16 17 18 19 20 21
000
FTUS43 KDLH 021901 AAA
TAFHIB
TAF AMD
KHIB 021901Z 0219/0318 32013G20KT P6SM BKN050
      TEMPO 0219/0221 33016G25KT -SHRA OVC060
     FM022100 32014G25KT P6SM SCT060
     FM030200 31005KT P6SM SKC
     FM031400 32012KT P6SM OVC050=

USA.gov is the U.S. government's official web portal to all federal, state and local government web resources and services.